South Windham, CT (06266)

3:11 PM EDT on August 27, 2014 (GMT -0400)
Babcock Hill | Change Station
CLOSE
Current Station
Personal Weather Station
Location: Lebanon, CT
Elevation: 440 ft
Nearby Weather Stations
Active Advisory: Air Quality Alert

Elev 440 ft 41.65 °N, 72.18 °W | Updated 2 minutes ago

Partly Cloudy
Partly Cloudy
84.3 °F
Feels Like 90 °F
N
0.0
Wind Variable Wind from SW

Today
High -- | Low -- °F
--% Chance of Precip.
Yesterday
High -- | Low -- °F
Precip. -- in
6:09 AM 7:30 PM
Waxing Crescent, 4% visible
Pressure 29.93 in
Visibility 10.0 miles
Clouds Few 3800 ft
Heat Index 90 °F
Dew Point 73 °F
Humidity 68%
Rainfall 0.00 in
Snow Depth Not available.
UV 4.8 out of 12
Pollen 9.30 out of 12
Ozone Moderate
Flu Activity Not available.
METAR KIJD 271752Z AUTO 22008KT 10SM FEW038 30/19 A2993 RMK AO2 SLP134 T03000189 10300 20172 58022

More Conditions Fewer Conditions

Pressure 29.93 in
Visibility 10.0 miles
Clouds Few 3800 ft
Heat Index 90 °F
Dew Point 73 °F
Humidity 68%
Rainfall 0.00 in
Snow Depth Not available.
UV 4.8 out of 12
Pollen 9.30 out of 12
Ozone Moderate
Flu Activity Not available.
METAR KIJD 271752Z AUTO 22008KT 10SM FEW038 30/19 A2993 RMK AO2 SLP134 T03000189 10300 20172 58022

More Conditions Fewer Conditions

10-Day Weather Forecast

Almanac

Astronomy

Aug. 27, 2014 Rise Set
Actual Time 6:09 AM EDT 7:30 PM EDT
Civil Twilight 5:40 AM EDT 7:58 PM EDT
Nautical Twilight 5:05 AM EDT 8:33 PM EDT
Astronomical Twilight 4:29 AM EDT 9:10 PM EDT
Moon 8:05 AM EDT 8:18 PM EDT
Length of Visible Light 14h 18m
Length of Day
13h 20m
Tomorrow will be 2m 38s shorter.
Waxing Crescent, 4% of the Moon is Illuminated
Today
Waxing Crescent
Sep 2
First Quarter
Sep 8
Full
Sep 15
Last Quarter
Sep 24
New

Today's Extremes

State Highs State Lows

Community

WunderPhotos

Upload Photos

1,747,759 photos uploaded!

Nearby

Air Quality

  Air Quality AQ Index Pollutant
Yesterday Good
OZONE
Current Moderate
OZONE
Wednesday Unhealthy for Sensitive Groups
OZONE
Wednesday Moderate
PM2.5
Thursday Good
OZONE
Thursday Good
PM2.5

Snow Depth

Station Depth Elevation
No new snow has been reported.

Earthquake Activity

City Distance Mag. Time & Date
No recent earthquake activity has been reported nearby.
Minimum magnitude displayed is 2.5.

Coastal Water Temperatures

Place Temperature
New London, CT 72.0 °F
Newport, RI 70.0 °F
Quonset Point, RI 73.0 °F
Conimicut Light, RI 72.0 °F
Providence, RI 73.0 °F

Nearby Weather Stations